sensor_id;sensor_type;location;lat;lon;timestamp;pressure;altitude;pressure_sealevel;temperature;humidity
13050;BME280;6591;51.446;5.404;2023-03-19T00:00:43;100750.41;;;17.39;50.28
13050;BME280;6591;51.446;5.404;2023-03-19T00:03:10;100750.28;;;17.41;49.99
13050;BME280;6591;51.446;5.404;2023-03-19T00:05:37;100759.31;;;17.40;50.30
13050;BME280;6591;51.446;5.404;2023-03-19T00:08:05;100753.94;;;17.40;50.21
13050;BME280;6591;51.446;5.404;2023-03-19T00:10:37;100754.78;;;17.40;50.32
13050;BME280;6591;51.446;5.404;2023-03-19T00:13:04;100754.78;;;17.40;50.11
13050;BME280;6591;51.446;5.404;2023-03-19T00:15:31;100747.59;;;17.41;50.09
13050;BME280;6591;51.446;5.404;2023-03-19T00:17:58;100750.28;;;17.41;50.37
13050;BME280;6591;51.446;5.404;2023-03-19T00:20:27;100754.78;;;17.40;50.57
13050;BME280;6591;51.446;5.404;2023-03-19T00:22:54;100756.53;;;17.41;50.29
13050;BME280;6591;51.446;5.404;2023-03-19T00:25:22;100760.91;;;17.42;50.38
13050;BME280;6591;51.446;5.404;2023-03-19T00:27:50;100764.47;;;17.43;50.66
13050;BME280;6591;51.446;5.404;2023-03-19T00:30:19;100773.34;;;17.43;50.49
13050;BME280;6591;51.446;5.404;2023-03-19T00:32:47;100764.31;;;17.44;50.66
13050;BME280;6591;51.446;5.404;2023-03-19T00:35:14;100772.38;;;17.44;50.37
13050;BME280;6591;51.446;5.404;2023-03-19T00:37:41;100766.03;;;17.45;50.57
13050;BME280;6591;51.446;5.404;2023-03-19T00:40:09;100771.31;;;17.47;50.39
13050;BME280;6591;51.446;5.404;2023-03-19T00:42:38;100768.63;;;17.47;50.50
13050;BME280;6591;51.446;5.404;2023-03-19T00:45:06;100771.16;;;17.48;50.60
13050;BME280;6591;51.446;5.404;2023-03-19T00:47:33;100773.84;;;17.48;50.63
13050;BME280;6591;51.446;5.404;2023-03-19T00:50:03;100769.34;;;17.49;50.74
13050;BME280;6591;51.446;5.404;2023-03-19T00:52:30;100770.22;;;17.49;50.79
13050;BME280;6591;51.446;5.404;2023-03-19T00:54:57;100772.03;;;17.49;50.83
13050;BME280;6591;51.446;5.404;2023-03-19T00:57:24;100772.03;;;17.49;50.33
13050;BME280;6591;51.446;5.404;2023-03-19T00:59:52;100772.88;;;17.49;50.54
13050;BME280;6591;51.446;5.404;2023-03-19T01:02:19;100774.72;;;17.49;50.40
13050;BME280;6591;51.446;5.404;2023-03-19T01:04:49;100776.69;;;17.47;50.57
13050;BME280;6591;51.446;5.404;2023-03-19T01:07:16;100773.25;;;17.45;50.16
13050;BME280;6591;51.446;5.404;2023-03-19T01:09:45;100772.63;;;17.41;50.30
13050;BME280;6591;51.446;5.404;2023-03-19T01:12:13;100773.69;;;17.38;50.59
13050;BME280;6591;51.446;5.404;2023-03-19T01:14:41;100772.22;;;17.34;50.50
13050;BME280;6591;51.446;5.404;2023-03-19T01:17:08;100777.94;;;17.30;50.36
13050;BME280;6591;51.446;5.404;2023-03-19T01:19:35;100775.50;;;17.27;50.84
13050;BME280;6591;51.446;5.404;2023-03-19T01:22:02;100779.34;;;17.23;50.55
13050;BME280;6591;51.446;5.404;2023-03-19T01:24:31;100776.81;;;17.21;50.76
13050;BME280;6591;51.446;5.404;2023-03-19T01:26:59;100769.72;;;17.20;50.78
13050;BME280;6591;51.446;5.404;2023-03-19T01:29:34;100780.56;;;17.19;51.14
13050;BME280;6591;51.446;5.404;2023-03-19T01:32:14;100782.38;;;17.18;50.61
13050;BME280;6591;51.446;5.404;2023-03-19T01:35:03;100780.56;;;17.19;51.18
13050;BME280;6591;51.446;5.404;2023-03-19T01:37:31;100772.50;;;17.19;50.90
13050;BME280;6591;51.446;5.404;2023-03-19T01:39:58;100770.56;;;17.21;50.96
13050;BME280;6591;51.446;5.404;2023-03-19T01:42:26;100766.88;;;17.22;51.13
13050;BME280;6591;51.446;5.404;2023-03-19T01:45:36;100774.44;;;17.17;51.44
13050;BME280;6591;51.446;5.404;2023-03-19T01:48:57;100770.91;;;17.16;51.34
13050;BME280;6591;51.446;5.404;2023-03-19T01:51:33;100768.84;;;17.20;51.04
13050;BME280;6591;51.446;5.404;2023-03-19T01:54:25;100776.56;;;17.24;51.21
13050;BME280;6591;51.446;5.404;2023-03-19T01:57:09;100771.81;;;17.28;51.24
13050;BME280;6591;51.446;5.404;2023-03-19T02:00:01;100782.53;;;17.28;51.06
13050;BME280;6591;51.446;5.404;2023-03-19T02:02:46;100781.47;;;17.30;51.22
13050;BME280;6591;51.446;5.404;2023-03-19T02:05:36;100770.63;;;17.32;51.31
13050;BME280;6591;51.446;5.404;2023-03-19T02:08:11;100773.19;;;17.33;51.12
13050;BME280;6591;51.446;5.404;2023-03-19T02:10:41;100773.94;;;17.35;51.14
13050;BME280;6591;51.446;5.404;2023-03-19T02:13:09;100776.63;;;17.35;51.53
13050;BME280;6591;51.446;5.404;2023-03-19T02:15:37;100776.63;;;17.35;51.25
13050;BME280;6591;51.446;5.404;2023-03-19T02:18:06;100778.44;;;17.35;51.01
13050;BME280;6591;51.446;5.404;2023-03-19T02:21:06;100776.22;;;17.29;51.35
13050;BME280;6591;51.446;5.404;2023-03-19T02:26:40;100768.91;;;17.31;51.30
13050;BME280;6591;51.446;5.404;2023-03-19T02:29:09;100780.38;;;17.33;51.22
13050;BME280;6591;51.446;5.404;2023-03-19T02:31:36;100780.38;;;17.33;51.41
13050;BME280;6591;51.446;5.404;2023-03-19T02:37:23;100775.50;;;17.27;51.79
13050;BME280;6591;51.446;5.404;2023-03-19T02:40:01;100768.16;;;17.29;51.33
13050;BME280;6591;51.446;5.404;2023-03-19T02:42:30;100770.63;;;17.32;51.63
13050;BME280;6591;51.446;5.404;2023-03-19T02:44:57;100770.63;;;17.32;51.35
13050;BME280;6591;51.446;5.404;2023-03-19T02:47:26;100777.81;;;17.31;51.60
13050;BME280;6591;51.446;5.404;2023-03-19T02:49:54;100785.75;;;17.33;51.43
13050;BME280;6591;51.446;5.404;2023-03-19T02:52:22;100783.91;;;17.33;51.67
13050;BME280;6591;51.446;5.404;2023-03-19T02:54:49;100785.75;;;17.33;51.29
13050;BME280;6591;51.446;5.404;2023-03-19T02:57:17;100788.31;;;17.34;51.52
13050;BME280;6591;51.446;5.404;2023-03-19T02:59:44;100787.47;;;17.34;51.52
13050;BME280;6591;51.446;5.404;2023-03-19T03:02:11;100783.81;;;17.35;51.31
13050;BME280;6591;51.446;5.404;2023-03-19T03:04:38;100791.88;;;17.35;51.74
13050;BME280;6591;51.446;5.404;2023-03-19T03:07:05;100783.81;;;17.35;51.92
13050;BME280;6591;51.446;5.404;2023-03-19T03:09:34;100790.91;;;17.36;51.57
13050;BME280;6591;51.446;5.404;2023-03-19T03:12:02;100794.44;;;17.36;51.30
13050;BME280;6591;51.446;5.404;2023-03-19T03:14:29;100793.47;;;17.38;51.39
13050;BME280;6591;51.446;5.404;2023-03-19T03:16:56;100794.31;;;17.38;51.73
13050;BME280;6591;51.446;5.404;2023-03-19T03:19:24;100794.19;;;17.40;51.56
13050;BME280;6591;51.446;5.404;2023-03-19T03:21:52;100794.09;;;17.41;51.45
13050;BME280;6591;51.446;5.404;2023-03-19T03:24:19;100789.59;;;17.42;51.68
13050;BME280;6591;51.446;5.404;2023-03-19T03:26:46;100790.44;;;17.42;51.65
13050;BME280;6591;51.446;5.404;2023-03-19T03:29:14;100795.69;;;17.44;51.92
13050;BME280;6591;51.446;5.404;2023-03-19T03:31:41;100795.56;;;17.45;51.36
13050;BME280;6591;51.446;5.404;2023-03-19T03:34:09;100798.38;;;17.44;51.35
13050;BME280;6591;51.446;5.404;2023-03-19T03:36:36;100796.69;;;17.43;51.31
13050;BME280;6591;51.446;5.404;2023-03-19T03:39:04;100793.25;;;17.41;51.24
13050;BME280;6591;51.446;5.404;2023-03-19T03:41:31;100795.31;;;17.37;51.00
13050;BME280;6591;51.446;5.404;2023-03-19T03:44:00;100798.31;;;17.32;51.27
13050;BME280;6591;51.446;5.404;2023-03-19T03:46:28;100803.16;;;17.27;51.14
13050;BME280;6591;51.446;5.404;2023-03-19T03:48:56;100807.03;;;17.23;51.44
13050;BME280;6591;51.446;5.404;2023-03-19T03:51:24;100807.28;;;17.20;51.39
13050;BME280;6591;51.446;5.404;2023-03-19T03:53:51;100811.88;;;17.18;51.33
13050;BME280;6591;51.446;5.404;2023-03-19T03:56:18;100809.44;;;17.15;51.48
13050;BME280;6591;51.446;5.404;2023-03-19T03:58:45;100812.47;;;17.11;51.29
13050;BME280;6591;51.446;5.404;2023-03-19T04:01:15;100814.63;;;17.06;51.72
13050;BME280;6591;51.446;5.404;2023-03-19T04:03:46;100808.59;;;17.02;51.22
13050;BME280;6591;51.446;5.404;2023-03-19T04:06:16;100810.16;;;16.93;51.17
13050;BME280;6591;51.446;5.404;2023-03-19T04:08:49;100814.13;;;16.88;51.16
13050;BME280;6591;51.446;5.404;2023-03-19T04:11:17;100810.16;;;16.81;51.21
13050;BME280;6591;51.446;5.404;2023-03-19T04:13:44;100816.09;;;16.73;51.17
13050;BME280;6591;51.446;5.404;2023-03-19T04:16:12;100807.63;;;16.67;51.24
13050;BME280;6591;51.446;5.404;2023-03-19T04:18:41;100805.38;;;16.61;51.54
13050;BME280;6591;51.446;5.404;2023-03-19T04:21:09;100809.44;;;16.53;51.25
13050;BME280;6591;51.446;5.404;2023-03-19T04:23:36;100810.72;;;16.48;51.62
13050;BME280;6591;51.446;5.404;2023-03-19T04:26:05;100808.47;;;16.42;51.69
13050;BME280;6591;51.446;5.404;2023-03-19T04:28:35;100821.34;;;16.37;51.63
13050;BME280;6591;51.446;5.404;2023-03-19T04:31:06;100812.00;;;16.30;51.28
13050;BME280;6591;51.446;5.404;2023-03-19T04:33:38;100819.28;;;16.28;51.76
13050;BME280;6591;51.446;5.404;2023-03-19T04:36:06;100818.72;;;16.23;51.75
13050;BME280;6591;51.446;5.404;2023-03-19T04:38:35;100814.47;;;16.20;52.04
13050;BME280;6591;51.446;5.404;2023-03-19T04:41:03;100808.47;;;16.17;51.69
13050;BME280;6591;51.446;5.404;2023-03-19T04:43:33;100813.16;;;16.13;51.77
13050;BME280;6591;51.446;5.404;2023-03-19T04:46:03;100806.31;;;16.09;51.66
13050;BME280;6591;51.446;5.404;2023-03-19T04:48:31;100819.16;;;16.04;51.28
13050;BME280;6591;51.446;5.404;2023-03-19T04:50:58;100826.56;;;16.00;51.90
13050;BME280;6591;51.446;5.404;2023-03-19T04:53:25;100819.88;;;15.93;51.52
13050;BME280;6591;51.446;5.404;2023-03-19T04:55:52;100823.84;;;15.88;51.44
13050;BME280;6591;51.446;5.404;2023-03-19T04:58:20;100832.41;;;15.80;51.46
13050;BME280;6591;51.446;5.404;2023-03-19T05:00:55;100839.03;;;15.75;51.78
13050;BME280;6591;51.446;5.404;2023-03-19T05:03:35;100842.09;;;15.68;51.88
13050;BME280;6591;51.446;5.404;2023-03-19T05:06:03;100841.56;;;15.63;51.71
13050;BME280;6591;51.446;5.404;2023-03-19T05:08:31;100854.38;;;15.58;51.69
13050;BME280;6591;51.446;5.404;2023-03-19T05:10:58;100845.78;;;15.53;51.67
13050;BME280;6591;51.446;5.404;2023-03-19T05:13:31;100845.31;;;15.47;51.83
13050;BME280;6591;51.446;5.404;2023-03-19T05:15:58;100841.13;;;15.43;51.76
13050;BME280;6591;51.446;5.404;2023-03-19T05:18:26;100839.56;;;15.39;52.08
13050;BME280;6591;51.446;5.404;2023-03-19T05:20:53;100846.84;;;15.37;52.18
13050;BME280;6591;51.446;5.404;2023-03-19T05:23:22;100848.88;;;15.33;52.35
13050;BME280;6591;51.446;5.404;2023-03-19T05:26:06;100850.88;;;15.30;52.35
13050;BME280;6591;51.446;5.404;2023-03-19T05:29:02;100848.22;;;15.30;52.50
13050;BME280;6591;51.446;5.404;2023-03-19T05:31:40;100851.75;;;15.30;52.42
13050;BME280;6591;51.446;5.404;2023-03-19T05:34:08;100851.66;;;15.32;52.78
13050;BME280;6591;51.446;5.404;2023-03-19T05:36:35;100856.06;;;15.33;52.57
13050;BME280;6591;51.446;5.404;2023-03-19T05:39:11;100858.50;;;15.36;52.89
13050;BME280;6591;51.446;5.404;2023-03-19T05:41:40;100863.66;;;15.39;52.73
13050;BME280;6591;51.446;5.404;2023-03-19T05:44:10;100862.53;;;15.43;53.09
13050;BME280;6591;51.446;5.404;2023-03-19T05:47:03;100864.97;;;15.46;53.02
13050;BME280;6591;51.446;5.404;2023-03-19T05:49:34;100868.22;;;15.51;52.93
13050;BME280;6591;51.446;5.404;2023-03-19T05:52:03;100867.94;;;15.55;53.07
13050;BME280;6591;51.446;5.404;2023-03-19T05:54:31;100873.84;;;15.60;52.91
13050;BME280;6591;51.446;5.404;2023-03-19T05:57:20;100876.22;;;15.65;53.19
13050;BME280;6591;51.446;5.404;2023-03-19T05:59:56;100874.22;;;15.68;53.28
13050;BME280;6591;51.446;5.404;2023-03-19T06:02:40;100875.63;;;15.74;53.27
13050;BME280;6591;51.446;5.404;2023-03-19T06:05:30;100879.72;;;15.80;52.90
13050;BME280;6591;51.446;5.404;2023-03-19T06:08:05;100880.38;;;15.83;53.26
13050;BME280;6591;51.446;5.404;2023-03-19T06:10:51;100888.09;;;15.88;53.00
13050;BME280;6591;51.446;5.404;2023-03-19T06:13:20;100893.28;;;15.91;53.10
13050;BME280;6591;51.446;5.404;2023-03-19T06:15:58;100892.19;;;15.93;53.19
13050;BME280;6591;51.446;5.404;2023-03-19T06:18:49;100891.97;;;15.96;53.18
13050;BME280;6591;51.446;5.404;2023-03-19T06:21:16;100894.56;;;15.98;53.24
13050;BME280;6591;51.446;5.404;2023-03-19T06:23:43;100898.88;;;16.00;52.94
13050;BME280;6591;51.446;5.404;2023-03-19T06:26:13;100904.22;;;16.00;52.87
13050;BME280;6591;51.446;5.404;2023-03-19T06:28:51;100908.72;;;16.00;52.91
13050;BME280;6591;51.446;5.404;2023-03-19T06:31:19;100906.91;;;16.00;53.39
13050;BME280;6591;51.446;5.404;2023-03-19T06:33:54;100909.56;;;16.00;52.96
13050;BME280;6591;51.446;5.404;2023-03-19T06:36:26;100910.53;;;15.99;53.33
13050;BME280;6591;51.446;5.404;2023-03-19T06:38:53;100912.34;;;15.99;53.12
13050;BME280;6591;51.446;5.404;2023-03-19T06:41:20;100915.97;;;15.98;53.03
13050;BME280;6591;51.446;5.404;2023-03-19T06:43:49;100917.94;;;15.96;53.23
13050;BME280;6591;51.446;5.404;2023-03-19T06:46:16;100915.34;;;15.94;52.97
13050;BME280;6591;51.446;5.404;2023-03-19T06:48:43;100927.09;;;15.92;53.16
13050;BME280;6591;51.446;5.404;2023-03-19T06:51:10;100933.44;;;15.91;52.86
13050;BME280;6591;51.446;5.404;2023-03-19T06:53:37;100922.81;;;15.89;53.24
13050;BME280;6591;51.446;5.404;2023-03-19T06:56:05;100928.28;;;15.88;53.16
13050;BME280;6591;51.446;5.404;2023-03-19T06:58:32;100930.09;;;15.87;53.01
13050;BME280;6591;51.446;5.404;2023-03-19T07:01:01;100929.22;;;15.87;53.36
13050;BME280;6591;51.446;5.404;2023-03-19T07:03:28;100926.44;;;15.88;53.39
13050;BME280;6591;51.446;5.404;2023-03-19T07:05:56;100931.72;;;15.90;53.39
13050;BME280;6591;51.446;5.404;2023-03-19T07:08:23;100937.94;;;15.90;53.40
13050;BME280;6591;51.446;5.404;2023-03-19T07:10:54;100940.41;;;15.93;53.72
13050;BME280;6591;51.446;5.404;2023-03-19T07:13:21;100938.28;;;15.98;53.69
13050;BME280;6591;51.446;5.404;2023-03-19T07:15:48;100944.19;;;16.03;53.76
13050;BME280;6591;51.446;5.404;2023-03-19T07:18:16;100948.50;;;16.06;53.55
13050;BME280;6591;51.446;5.404;2023-03-19T07:20:43;100951.81;;;16.09;53.65
13050;BME280;6591;51.446;5.404;2023-03-19T07:23:11;100956.00;;;16.14;53.75
13050;BME280;6591;51.446;5.404;2023-03-19T07:25:39;100958.59;;;16.15;53.65
13050;BME280;6591;51.446;5.404;2023-03-19T07:28:10;100967.19;;;16.20;53.72
13050;BME280;6591;51.446;5.404;2023-03-19T07:30:40;100970.72;;;16.21;53.49
13050;BME280;6591;51.446;5.404;2023-03-19T07:33:11;100967.09;;;16.22;53.64
13050;BME280;6591;51.446;5.404;2023-03-19T07:35:39;100965.13;;;16.24;53.73
13050;BME280;6591;51.446;5.404;2023-03-19T07:38:07;100970.50;;;16.24;53.76
13050;BME280;6591;51.446;5.404;2023-03-19T07:40:37;100964.97;;;16.27;53.89
13050;BME280;6591;51.446;5.404;2023-03-19T07:43:11;100970.88;;;16.32;53.97
13050;BME280;6591;51.446;5.404;2023-03-19T07:45:41;100966.25;;;16.34;53.97
13050;BME280;6591;51.446;5.404;2023-03-19T07:48:09;100976.47;;;16.41;54.32
13050;BME280;6591;51.446;5.404;2023-03-19T07:50:40;100963.50;;;16.48;54.49
13050;BME280;6591;51.446;5.404;2023-03-19T07:53:08;100967.19;;;16.60;54.87
13050;BME280;6591;51.446;5.404;2023-03-19T07:55:36;100968.94;;;16.73;54.63
13050;BME280;6591;51.446;5.404;2023-03-19T07:58:04;100973.97;;;16.90;54.72
13050;BME280;6591;51.446;5.404;2023-03-19T08:00:34;100970.00;;;17.09;54.81
13050;BME280;6591;51.446;5.404;2023-03-19T08:03:02;100970.41;;;17.28;54.74
13050;BME280;6591;51.446;5.404;2023-03-19T08:05:29;100970.84;;;17.47;54.94
13050;BME280;6591;51.446;5.404;2023-03-19T08:07:56;100977.47;;;17.67;54.96
13050;BME280;6591;51.446;5.404;2023-03-19T08:10:24;100969.69;;;17.88;54.95
13050;BME280;6591;51.446;5.404;2023-03-19T08:12:51;100981.63;;;18.07;54.60
13050;BME280;6591;51.446;5.404;2023-03-19T08:15:18;100976.84;;;18.24;54.00
13050;BME280;6591;51.446;5.404;2023-03-19T08:17:45;100987.53;;;18.36;53.97
13050;BME280;6591;51.446;5.404;2023-03-19T08:20:15;100980.59;;;18.45;53.41
13050;BME280;6591;51.446;5.404;2023-03-19T08:22:43;100984.66;;;18.50;53.43
13050;BME280;6591;51.446;5.404;2023-03-19T08:25:10;100990.78;;;18.52;53.29
13050;BME280;6591;51.446;5.404;2023-03-19T08:27:37;100989.78;;;18.53;53.16
13050;BME280;6591;51.446;5.404;2023-03-19T08:30:07;100998.00;;;18.52;52.68
13050;BME280;6591;51.446;5.404;2023-03-19T08:32:36;100996.91;;;18.54;53.06
13050;BME280;6591;51.446;5.404;2023-03-19T08:35:04;101002.28;;;18.54;52.52
13050;BME280;6591;51.446;5.404;2023-03-19T08:37:32;100998.63;;;18.55;52.48
13050;BME280;6591;51.446;5.404;2023-03-19T08:39:59;101001.81;;;18.60;52.75
13050;BME280;6591;51.446;5.404;2023-03-19T08:42:27;101001.38;;;18.67;52.54
13050;BME280;6591;51.446;5.404;2023-03-19T08:44:55;101004.31;;;18.75;52.52
13050;BME280;6591;51.446;5.404;2023-03-19T08:47:25;101006.19;;;18.85;52.51
13050;BME280;6591;51.446;5.404;2023-03-19T08:49:53;101006.31;;;18.95;52.16
13050;BME280;6591;51.446;5.404;2023-03-19T08:52:21;101017.47;;;19.01;51.81
13050;BME280;6591;51.446;5.404;2023-03-19T08:54:48;101013.69;;;19.04;51.71
13050;BME280;6591;51.446;5.404;2023-03-19T08:57:15;101022.75;;;19.03;51.34
13050;BME280;6591;51.446;5.404;2023-03-19T08:59:43;101023.72;;;19.02;51.11
13050;BME280;6591;51.446;5.404;2023-03-19T09:02:10;101021.28;;;18.99;51.30
13050;BME280;6591;51.446;5.404;2023-03-19T09:04:42;101024.19;;;18.96;51.21
13050;BME280;6591;51.446;5.404;2023-03-19T09:07:11;101017.72;;;18.98;51.43
13050;BME280;6591;51.446;5.404;2023-03-19T09:09:39;101028.13;;;19.03;51.71
13050;BME280;6591;51.446;5.404;2023-03-19T09:12:09;101026.44;;;19.13;51.88
13050;BME280;6591;51.446;5.404;2023-03-19T09:14:37;101031.59;;;19.27;52.05
13050;BME280;6591;51.446;5.404;2023-03-19T09:17:05;101034.91;;;19.42;51.45
13050;BME280;6591;51.446;5.404;2023-03-19T09:19:33;101037.91;;;19.50;50.76
13050;BME280;6591;51.446;5.404;2023-03-19T09:22:01;101042.66;;;19.58;50.83
13050;BME280;6591;51.446;5.404;2023-03-19T09:24:28;101042.06;;;19.65;50.63
13050;BME280;6591;51.446;5.404;2023-03-19T09:26:55;101041.44;;;19.73;50.38
13050;BME280;6591;51.446;5.404;2023-03-19T09:29:22;101046.31;;;19.79;50.27
13050;BME280;6591;51.446;5.404;2023-03-19T09:31:49;101043.03;;;19.86;50.76
13050;BME280;6591;51.446;5.404;2023-03-19T09:34:16;101051.00;;;19.99;50.51
13050;BME280;6591;51.446;5.404;2023-03-19T09:36:44;101054.25;;;20.14;50.58
13050;BME280;6591;51.446;5.404;2023-03-19T09:39:11;101052.75;;;20.32;50.77
13050;BME280;6591;51.446;5.404;2023-03-19T09:44:39;101054.53;;;20.86;50.92
13050;BME280;6591;51.446;5.404;2023-03-19T09:47:30;101051.06;;;21.16;50.27
13050;BME280;6591;51.446;5.404;2023-03-19T09:50:06;101054.66;;;21.46;50.51
13050;BME280;6591;51.446;5.404;2023-03-19T09:55:31;101053.09;;;22.05;49.42
13050;BME280;6591;51.446;5.404;2023-03-19T09:58:21;101055.69;;;22.25;48.72
13050;BME280;6591;51.446;5.404;2023-03-19T10:00:51;101054.03;;;22.44;48.34
13050;BME280;6591;51.446;5.404;2023-03-19T10:03:42;101050.78;;;22.50;47.54
13050;BME280;6591;51.446;5.404;2023-03-19T10:12:14;101056.31;;;22.48;47.35
13050;BME280;6591;51.446;5.404;2023-03-19T10:17:59;101068.56;;;22.62;47.06
13050;BME280;6591;51.446;5.404;2023-03-19T10:23:46;101071.59;;;22.88;47.08
13050;BME280;6591;51.446;5.404;2023-03-19T10:26:20;101060.19;;;23.03;46.71
13050;BME280;6591;51.446;5.404;2023-03-19T10:29:19;101064.75;;;23.12;46.49
13050;BME280;6591;51.446;5.404;2023-03-19T10:32:12;101069.00;;;23.24;46.27
13050;BME280;6591;51.446;5.404;2023-03-19T10:34:49;101066.13;;;23.45;46.52
13050;BME280;6591;51.446;5.404;2023-03-19T10:37:29;101067.09;;;23.63;46.49
13050;BME280;6591;51.446;5.404;2023-03-19T10:39:59;101068.56;;;23.85;46.23
13050;BME280;6591;51.446;5.404;2023-03-19T10:43:03;101062.78;;;23.98;45.86
13050;BME280;6591;51.446;5.404;2023-03-19T10:45:35;101065.00;;;24.12;45.69
13050;BME280;6591;51.446;5.404;2023-03-19T10:48:13;101069.56;;;24.21;45.46
13050;BME280;6591;51.446;5.404;2023-03-19T10:50:51;101076.69;;;24.22;44.95
13050;BME280;6591;51.446;5.404;2023-03-19T10:53:34;101073.13;;;24.22;45.05
13050;BME280;6591;51.446;5.404;2023-03-19T10:56:24;101071.09;;;24.24;44.71
13050;BME280;6591;51.446;5.404;2023-03-19T10:59:04;101075.47;;;24.34;45.13
13050;BME280;6591;51.446;5.404;2023-03-19T11:01:41;101071.94;;;24.52;45.11
13050;BME280;6591;51.446;5.404;2023-03-19T11:04:21;101078.91;;;24.72;45.35
13050;BME280;6591;51.446;5.404;2023-03-19T11:09:50;101079.78;;;25.08;44.06
13050;BME280;6591;51.446;5.404;2023-03-19T11:12:28;101082.03;;;25.12;43.57
13050;BME280;6591;51.446;5.404;2023-03-19T11:14:58;101086.44;;;25.13;42.54
13050;BME280;6591;51.446;5.404;2023-03-19T11:18:18;101083.16;;;25.02;42.35
13050;BME280;6591;51.446;5.404;2023-03-19T11:20:31;101082.69;;;24.88;42.27
13050;BME280;6591;51.446;5.404;2023-03-19T11:23:06;101088.03;;;24.80;42.36
13050;BME280;6591;51.446;5.404;2023-03-19T11:25:46;101084.06;;;24.75;42.70
13050;BME280;6591;51.446;5.404;2023-03-19T11:28:22;101085.06;;;24.74;42.85
13050;BME280;6591;51.446;5.404;2023-03-19T11:31:14;101092.97;;;24.67;42.07
13050;BME280;6591;51.446;5.404;2023-03-19T11:40:15;101099.56;;;24.20;42.14
13050;BME280;6591;51.446;5.404;2023-03-19T11:43:23;101092.56;;;24.07;42.30
13050;BME280;6591;51.446;5.404;2023-03-19T11:47:18;101097.41;;;23.86;42.37
13050;BME280;6591;51.446;5.404;2023-03-19T11:50:18;101105.31;;;23.70;42.04
13050;BME280;6591;51.446;5.404;2023-03-19T11:55:13;101098.66;;;23.55;42.41
13050;BME280;6591;51.446;5.404;2023-03-19T12:00:50;101104.06;;;23.36;42.40
13050;BME280;6591;51.446;5.404;2023-03-19T12:11:58;101097.84;;;23.16;43.27
13050;BME280;6591;51.446;5.404;2023-03-19T12:15:04;101094.25;;;23.25;43.39
13050;BME280;6591;51.446;5.404;2023-03-19T12:23:57;101091.44;;;23.73;42.70
13050;BME280;6591;51.446;5.404;2023-03-19T12:26:48;101094.56;;;23.78;42.51
13050;BME280;6591;51.446;5.404;2023-03-19T12:29:51;101094.13;;;23.83;42.42
13050;BME280;6591;51.446;5.404;2023-03-19T12:35:17;101094.03;;;23.75;41.75
13050;BME280;6591;51.446;5.404;2023-03-19T12:38:38;101103.91;;;23.56;41.71
13050;BME280;6591;51.446;5.404;2023-03-19T12:41:23;101101.22;;;23.47;41.70
13050;BME280;6591;51.446;5.404;2023-03-19T12:47:07;101102.38;;;23.25;42.03
13050;BME280;6591;51.446;5.404;2023-03-19T12:49:52;101102.09;;;23.28;42.74
13050;BME280;6591;51.446;5.404;2023-03-19T12:52:39;101106.22;;;23.32;42.45
13050;BME280;6591;51.446;5.404;2023-03-19T12:55:20;101093.22;;;23.45;42.60
13050;BME280;6591;51.446;5.404;2023-03-19T13:00:36;101101.44;;;23.73;42.14
13050;BME280;6591;51.446;5.404;2023-03-19T13:03:15;101113.38;;;23.89;42.41
13050;BME280;6591;51.446;5.404;2023-03-19T13:05:56;101105.59;;;24.04;41.68
13050;BME280;6591;51.446;5.404;2023-03-19T13:08:54;101106.00;;;24.09;41.27
13050;BME280;6591;51.446;5.404;2023-03-19T13:12:00;101105.88;;;24.11;40.86
13050;BME280;6591;51.446;5.404;2023-03-19T13:23:33;101111.63;;;23.98;40.95
13050;BME280;6591;51.446;5.404;2023-03-19T13:26:06;101122.47;;;23.98;40.62
13050;BME280;6591;51.446;5.404;2023-03-19T13:28:59;101114.69;;;23.85;40.73
13050;BME280;6591;51.446;5.404;2023-03-19T13:31:32;101111.41;;;23.82;40.71
13050;BME280;6591;51.446;5.404;2023-03-19T13:34:06;101111.16;;;23.75;40.57
13050;BME280;6591;51.446;5.404;2023-03-19T13:36:38;101119.16;;;23.67;40.70
13050;BME280;6591;51.446;5.404;2023-03-19T13:39:17;101126.75;;;23.63;40.99
13050;BME280;6591;51.446;5.404;2023-03-19T13:45:33;101118.19;;;23.58;40.65
13050;BME280;6591;51.446;5.404;2023-03-19T13:51:27;101125.91;;;23.53;41.04
13050;BME280;6591;51.446;5.404;2023-03-19T13:54:15;101133.91;;;23.55;40.81
13050;BME280;6591;51.446;5.404;2023-03-19T13:59:36;101139.19;;;23.47;40.12
13050;BME280;6591;51.446;5.404;2023-03-19T14:07:29;101142.16;;;23.44;41.17
13050;BME280;6591;51.446;5.404;2023-03-19T14:10:11;101140.78;;;23.49;40.92
13050;BME280;6591;51.446;5.404;2023-03-19T14:12:43;101129.19;;;23.57;40.97
13050;BME280;6591;51.446;5.404;2023-03-19T14:17:53;101134.72;;;23.75;40.78
13050;BME280;6591;51.446;5.404;2023-03-19T14:20:43;101139.97;;;23.86;40.70
13050;BME280;6591;51.446;5.404;2023-03-19T14:23:23;101134.50;;;23.95;40.59
13050;BME280;6591;51.446;5.404;2023-03-19T14:26:22;101133.31;;;23.98;40.41
13050;BME280;6591;51.446;5.404;2023-03-19T14:29:03;101126.84;;;24.08;40.76
13050;BME280;6591;51.446;5.404;2023-03-19T14:31:47;101123.25;;;24.27;40.99
13050;BME280;6591;51.446;5.404;2023-03-19T14:34:47;101129.56;;;24.45;41.05
13050;BME280;6591;51.446;5.404;2023-03-19T14:39:56;101134.50;;;24.77;39.87
13050;BME280;6591;51.446;5.404;2023-03-19T14:45:31;101135.75;;;24.83;38.87
13050;BME280;6591;51.446;5.404;2023-03-19T14:51:22;101140.06;;;24.76;38.55
13050;BME280;6591;51.446;5.404;2023-03-19T14:54:18;101148.16;;;24.68;38.65
13050;BME280;6591;51.446;5.404;2023-03-19T14:56:47;101148.91;;;24.60;38.29
13050;BME280;6591;51.446;5.404;2023-03-19T14:59:14;101154.84;;;24.46;38.20
13050;BME280;6591;51.446;5.404;2023-03-19T15:01:48;101157.81;;;24.25;38.08
13050;BME280;6591;51.446;5.404;2023-03-19T15:04:23;101147.72;;;24.08;38.20
13050;BME280;6591;51.446;5.404;2023-03-19T15:06:58;101153.50;;;23.95;38.50
13050;BME280;6591;51.446;5.404;2023-03-19T15:09:32;101157.38;;;23.83;38.39
13050;BME280;6591;51.446;5.404;2023-03-19T15:18:39;101168.44;;;23.34;38.38